Time;durP1;ratioP1;P1;durP2;ratioP2;P2;SDS_P1;SDS_P2;PMS_P1;PMS_P2;Temp;Humidity;BMP_temperature;BMP_pressure;BME280_temperature;BME280_humidity;BME280_pressure;Samples;Min_cycle;Max_cycle;Signal;HPM_P1;HPM_P2
2023/08/28 00:01:01;;;;;;;4.83;1.17;;;;;;;;;;5047260;28;20852;-79
2023/08/28 00:03:27;;;;;;;4.10;1.10;;;;;;;;;;5045868;28;20926;-78
2023/08/28 00:05:53;;;;;;;0.90;0.90;;;;;;;;;;5045578;28;20438;-77
2023/08/28 00:08:19;;;;;;;0.80;0.80;;;;;;;;;;5042934;28;20805;-78
2023/08/28 00:10:45;;;;;;;0.87;0.87;;;;;;;;;;5049771;28;20461;-79
2023/08/28 00:13:11;;;;;;;5.03;0.90;;;;;;;;;;5049864;28;20521;-77
2023/08/28 00:15:37;;;;;;;3.60;1.30;;;;;;;;;;5044690;28;20453;-79
2023/08/28 00:18:04;;;;;;;6.73;1.63;;;;;;;;;;5047678;28;20976;-78
2023/08/28 00:20:30;;;;;;;1.90;0.80;;;;;;;;;;5046335;28;20580;-74
2023/08/28 00:22:56;;;;;;;0.90;0.90;;;;;;;;;;5049584;28;20525;-79
2023/08/28 00:25:22;;;;;;;2.10;1.00;;;;;;;;;;5047492;28;20955;-80
2023/08/28 00:27:48;;;;;;;1.33;1.00;;;;;;;;;;5047078;28;20925;-76
2023/08/28 00:30:14;;;;;;;1.17;0.80;;;;;;;;;;5048316;28;20852;-76
2023/08/28 00:32:40;;;;;;;0.87;0.87;;;;;;;;;;5049671;28;20506;-75
2023/08/28 00:35:06;;;;;;;5.70;1.17;;;;;;;;;;5045882;28;20426;-77
2023/08/28 00:37:32;;;;;;;3.53;0.90;;;;;;;;;;5044325;28;20442;-75
2023/08/28 00:39:58;;;;;;;1.20;1.10;;;;;;;;;;5046819;28;20473;-73
2023/08/28 00:42:24;;;;;;;1.00;1.00;;;;;;;;;;5048237;28;20438;-76
2023/08/28 00:44:50;;;;;;;0.80;0.80;;;;;;;;;;5047177;28;20433;-71
2023/08/28 00:47:17;;;;;;;3.20;0.97;;;;;;;;;;5044207;28;20438;-73
2023/08/28 00:49:43;;;;;;;3.20;0.70;;;;;;;;;;5046089;28;20429;-79
2023/08/28 00:52:09;;;;;;;1.23;0.77;;;;;;;;;;5048140;28;20496;-76
2023/08/28 00:54:35;;;;;;;5.73;1.07;;;;;;;;;;5045891;28;21173;-73
2023/08/28 00:57:02;;;;;;;4.47;1.13;;;;;;;;;;5052146;28;20459;-76
2023/08/28 00:59:28;;;;;;;1.10;1.10;;;;;;;;;;5050687;28;20442;-75
2023/08/28 01:01:55;;;;;;;1.80;1.07;;;;;;;;;;5051635;28;20504;-75
2023/08/28 01:04:20;;;;;;;1.70;1.00;;;;;;;;;;5045602;28;20496;-73
2023/08/28 01:07:07;;;;;;;1.00;1.00;;;;;;;;;;5047776;28;20445;-73
2023/08/28 01:09:33;;;;;;;2.67;0.80;;;;;;;;;;5049506;28;20496;-76
2023/08/28 01:12:12;;;;;;;5.43;1.30;;;;;;;;;;5050083;28;20829;-78
2023/08/28 01:14:44;;;;;;;1.33;0.93;;;;;;;;;;5050405;28;20470;-77
2023/08/28 01:17:12;;;;;;;3.70;1.13;;;;;;;;;;5047328;28;20433;-79
2023/08/28 01:19:41;;;;;;;1.57;1.47;;;;;;;;;;5049335;28;20509;-75
2023/08/28 01:22:16;;;;;;;1.10;1.00;;;;;;;;;;5052289;28;20442;-77
2023/08/28 01:25:07;;;;;;;1.30;1.30;;;;;;;;;;5052298;28;20428;-76
2023/08/28 01:27:33;;;;;;;1.47;1.37;;;;;;;;;;5044175;28;20807;-77
2023/08/28 01:30:15;;;;;;;3.03;1.10;;;;;;;;;;5049572;28;20426;-74
2023/08/28 01:32:42;;;;;;;2.50;1.07;;;;;;;;;;5050302;28;20516;-79
2023/08/28 01:35:12;;;;;;;0.90;0.90;;;;;;;;;;5050418;28;20485;-77
2023/08/28 01:37:49;;;;;;;2.20;0.93;;;;;;;;;;5049231;28;20437;-78
2023/08/28 01:40:17;;;;;;;2.80;0.80;;;;;;;;;;5050212;28;20461;-75
2023/08/28 01:42:46;;;;;;;4.00;0.93;;;;;;;;;;5050218;28;20453;-78
2023/08/28 01:45:12;;;;;;;6.67;1.37;;;;;;;;;;5049391;28;20907;-78
2023/08/28 01:47:38;;;;;;;6.90;1.50;;;;;;;;;;5050288;28;20501;-77
2023/08/28 01:50:05;;;;;;;1.17;0.87;;;;;;;;;;5051202;28;20426;-79
2023/08/28 01:52:30;;;;;;;0.90;0.90;;;;;;;;;;5050044;28;20951;-75
2023/08/28 01:54:57;;;;;;;6.43;1.00;;;;;;;;;;5049728;28;20469;-79
2023/08/28 01:57:22;;;;;;;2.40;0.70;;;;;;;;;;5049934;28;20549;-75
2023/08/28 01:59:48;;;;;;;2.20;0.87;;;;;;;;;;5048568;28;20560;-73
2023/08/28 02:02:14;;;;;;;2.67;1.17;;;;;;;;;;5047053;28;20442;-73
2023/08/28 02:04:40;;;;;;;1.03;1.00;;;;;;;;;;5048930;28;20456;-76
2023/08/28 02:07:06;;;;;;;2.50;0.90;;;;;;;;;;5038297;28;20448;-79
2023/08/28 02:09:32;;;;;;;0.93;0.93;;;;;;;;;;5051828;28;20899;-74
2023/08/28 02:11:58;;;;;;;1.90;1.10;;;;;;;;;;5050157;28;20473;-76
2023/08/28 02:14:24;;;;;;;1.37;1.00;;;;;;;;;;5051835;28;20415;-78
2023/08/28 02:16:50;;;;;;;1.07;1.07;;;;;;;;;;5046145;28;20823;-73
2023/08/28 02:19:16;;;;;;;6.03;0.90;;;;;;;;;;5047565;28;20457;-78
2023/08/28 02:21:42;;;;;;;4.27;1.30;;;;;;;;;;5050138;28;20540;-79
2023/08/28 02:24:08;;;;;;;1.00;0.90;;;;;;;;;;5048907;28;20433;-79
2023/08/28 02:26:34;;;;;;;2.23;0.70;;;;;;;;;;5051201;28;20430;-76
2023/08/28 02:29:00;;;;;;;4.10;1.00;;;;;;;;;;5050183;28;20431;-78
2023/08/28 02:31:26;;;;;;;1.27;0.90;;;;;;;;;;5042349;28;20462;-74
2023/08/28 02:33:52;;;;;;;0.97;0.97;;;;;;;;;;5050350;28;20445;-77
2023/08/28 02:36:18;;;;;;;0.73;0.73;;;;;;;;;;5050531;28;20455;-73
2023/08/28 02:38:44;;;;;;;2.63;0.90;;;;;;;;;;5051509;28;20923;-75
2023/08/28 02:41:10;;;;;;;1.10;1.07;;;;;;;;;;5051081;28;20810;-76
2023/08/28 02:43:38;;;;;;;0.90;0.90;;;;;;;;;;5044950;28;20445;-70
2023/08/28 02:46:04;;;;;;;1.80;0.90;;;;;;;;;;5044014;28;20485;-75
2023/08/28 02:48:30;;;;;;;0.87;0.63;;;;;;;;;;5050864;28;20445;-73
2023/08/28 02:50:56;;;;;;;1.20;1.20;;;;;;;;;;5050739;28;20430;-74
2023/08/28 02:53:22;;;;;;;11.33;1.27;;;;;;;;;;5048781;28;20600;-79
2023/08/28 02:56:07;;;;;;;1.70;0.70;;;;;;;;;;5048910;28;20426;-78
2023/08/28 02:58:32;;;;;;;0.97;0.90;;;;;;;;;;5050721;28;20479;-76
2023/08/28 03:00:58;;;;;;;4.10;1.20;;;;;;;;;;5044242;28;20478;-78
2023/08/28 03:03:24;;;;;;;6.83;0.97;;;;;;;;;;5046438;28;20444;-78
2023/08/28 03:05:50;;;;;;;0.67;0.67;;;;;;;;;;5049151;28;20445;-78
2023/08/28 03:08:16;;;;;;;1.60;0.70;;;;;;;;;;5050558;28;20422;-78
2023/08/28 03:10:42;;;;;;;1.60;0.80;;;;;;;;;;5048134;28;20487;-78
2023/08/28 03:13:08;;;;;;;2.00;1.10;;;;;;;;;;5047734;28;20949;-79
2023/08/28 03:15:34;;;;;;;6.37;0.60;;;;;;;;;;5048330;28;20806;-78
2023/08/28 03:18:00;;;;;;;8.00;1.00;;;;;;;;;;5048248;28;20480;-77
2023/08/28 03:20:26;;;;;;;4.50;0.87;;;;;;;;;;5045122;28;20493;-79
2023/08/28 03:22:52;;;;;;;1.07;0.70;;;;;;;;;;5050290;28;21504;-79
2023/08/28 03:25:18;;;;;;;6.73;0.97;;;;;;;;;;5047387;28;20450;-76
2023/08/28 03:27:44;;;;;;;1.43;1.00;;;;;;;;;;5049131;28;21089;-75
2023/08/28 03:30:10;;;;;;;2.00;1.10;;;;;;;;;;5048534;28;20952;-75
2023/08/28 03:32:36;;;;;;;3.33;0.87;;;;;;;;;;5046178;28;20442;-77
2023/08/28 03:35:02;;;;;;;11.60;1.77;;;;;;;;;;5047199;28;20426;-78
2023/08/28 03:37:28;;;;;;;1.57;1.47;;;;;;;;;;5048503;28;20934;-79
2023/08/28 03:39:54;;;;;;;1.37;1.27;;;;;;;;;;5048080;28;20465;-79
2023/08/28 03:42:20;;;;;;;1.60;1.30;;;;;;;;;;5048599;28;20438;-77
2023/08/28 03:44:46;;;;;;;3.20;1.10;;;;;;;;;;5045990;28;20437;-78
2023/08/28 03:47:11;;;;;;;8.50;0.93;;;;;;;;;;5046122;28;20477;-79
2023/08/28 03:49:37;;;;;;;4.00;0.97;;;;;;;;;;5047165;28;20446;-79
2023/08/28 03:52:04;;;;;;;1.03;1.03;;;;;;;;;;5049668;28;20421;-78
2023/08/28 03:54:30;;;;;;;1.13;0.70;;;;;;;;;;5048635;28;21041;-76
2023/08/28 03:56:55;;;;;;;2.00;1.17;;;;;;;;;;5047747;28;20466;-78
2023/08/28 03:59:22;;;;;;;1.43;0.80;;;;;;;;;;5046672;28;20851;-76
2023/08/28 04:01:48;;;;;;;2.00;0.83;;;;;;;;;;5046079;28;20568;-73
2023/08/28 04:04:14;;;;;;;1.33;1.00;;;;;;;;;;5049931;28;20418;-77
2023/08/28 04:06:40;;;;;;;1.07;1.07;;;;;;;;;;5046628;28;20446;-79
2023/08/28 04:09:06;;;;;;;0.87;0.87;;;;;;;;;;5047992;28;20850;-79
2023/08/28 04:11:32;;;;;;;1.07;1.07;;;;;;;;;;5050101;28;20422;-76
2023/08/28 04:13:58;;;;;;;0.80;0.80;;;;;;;;;;5045361;28;20441;-79
2023/08/28 04:16:23;;;;;;;1.03;1.03;;;;;;;;;;5045957;28;20434;-79
2023/08/28 04:18:49;;;;;;;1.10;1.10;;;;;;;;;;5049400;28;20503;-76
2023/08/28 04:21:15;;;;;;;1.33;1.33;;;;;;;;;;5047367;28;20485;-75
2023/08/28 04:23:41;;;;;;;4.17;0.90;;;;;;;;;;5049745;28;20931;-77
2023/08/28 04:26:07;;;;;;;2.83;0.80;;;;;;;;;;5046583;28;20456;-79
2023/08/28 04:28:33;;;;;;;3.93;1.63;;;;;;;;;;5047739;28;20477;-76
2023/08/28 04:30:59;;;;;;;1.10;1.10;;;;;;;;;;5047075;28;20436;-77
2023/08/28 04:33:25;;;;;;;10.10;1.60;;;;;;;;;;5051296;28;20432;-77
2023/08/28 04:35:51;;;;;;;5.80;1.13;;;;;;;;;;5052079;28;20517;-78
2023/08/28 04:38:17;;;;;;;2.50;1.20;;;;;;;;;;5050249;28;20778;-74
2023/08/28 04:40:43;;;;;;;1.43;1.43;;;;;;;;;;5053754;28;21001;-77
2023/08/28 04:43:09;;;;;;;1.00;1.00;;;;;;;;;;5046724;28;20773;-78
2023/08/28 04:45:35;;;;;;;3.17;1.37;;;;;;;;;;5053191;28;20438;-76
2023/08/28 04:48:01;;;;;;;1.07;1.07;;;;;;;;;;5053397;28;20425;-78
2023/08/28 04:50:27;;;;;;;3.70;1.17;;;;;;;;;;5052773;28;20468;-80
2023/08/28 04:52:53;;;;;;;1.40;1.30;;;;;;;;;;5051880;28;20872;-78
2023/08/28 04:55:19;;;;;;;1.13;1.00;;;;;;;;;;5051108;28;20797;-78
2023/08/28 04:57:45;;;;;;;2.63;1.67;;;;;;;;;;5050705;28;21026;-78
2023/08/28 05:00:11;;;;;;;4.57;1.67;;;;;;;;;;5052174;28;20484;-78
2023/08/28 05:02:37;;;;;;;1.57;1.40;;;;;;;;;;5050589;28;20434;-77
2023/08/28 05:05:04;;;;;;;1.27;1.17;;;;;;;;;;5052300;28;20422;-78
2023/08/28 05:07:29;;;;;;;4.50;1.43;;;;;;;;;;5051047;28;20438;-78
2023/08/28 05:09:55;;;;;;;1.53;1.40;;;;;;;;;;5052797;28;20480;-77
2023/08/28 05:12:21;;;;;;;5.40;1.60;;;;;;;;;;5052876;28;20516;-77
2023/08/28 05:14:47;;;;;;;1.03;1.03;;;;;;;;;;5051824;28;20437;-78
2023/08/28 05:17:13;;;;;;;1.30;1.30;;;;;;;;;;5052645;28;20426;-79
2023/08/28 05:19:39;;;;;;;1.30;1.30;;;;;;;;;;5047837;28;20966;-73
2023/08/28 05:22:05;;;;;;;4.13;1.27;;;;;;;;;;5052515;28;20442;-80
2023/08/28 05:24:31;;;;;;;6.70;1.60;;;;;;;;;;5052552;28;20753;-78
2023/08/28 05:26:57;;;;;;;7.97;1.50;;;;;;;;;;5052369;28;20987;-78
2023/08/28 05:29:23;;;;;;;6.50;1.73;;;;;;;;;;5052429;28;20430;-79
2023/08/28 05:31:52;;;;;;;1.90;1.20;;;;;;;;;;5048126;28;20435;-73
2023/08/28 05:34:18;;;;;;;1.50;1.40;;;;;;;;;;5052541;28;20460;-71
2023/08/28 05:36:44;;;;;;;2.30;1.10;;;;;;;;;;5051794;28;20461;-70
2023/08/28 05:39:10;;;;;;;1.20;1.10;;;;;;;;;;5052237;28;20949;-70
2023/08/28 05:41:36;;;;;;;0.90;0.90;;;;;;;;;;5049521;28;21310;-70
2023/08/28 05:44:02;;;;;;;2.20;0.90;;;;;;;;;;5052501;28;20422;-72
2023/08/28 05:46:28;;;;;;;4.10;1.03;;;;;;;;;;5052020;28;20792;-72
2023/08/28 05:48:54;;;;;;;3.27;0.60;;;;;;;;;;5052078;28;20961;-72
2023/08/28 05:51:20;;;;;;;2.00;1.90;;;;;;;;;;5051798;28;20892;-70
2023/08/28 05:53:46;;;;;;;1.77;1.67;;;;;;;;;;5049966;28;20474;-70
2023/08/28 05:56:12;;;;;;;1.03;1.03;;;;;;;;;;5051926;28;20431;-70
2023/08/28 05:58:38;;;;;;;1.13;1.13;;;;;;;;;;5050827;28;20547;-70
2023/08/28 06:01:04;;;;;;;4.97;1.00;;;;;;;;;;5051663;28;20572;-70
2023/08/28 06:03:30;;;;;;;6.40;1.57;;;;;;;;;;5049664;28;20958;-70
2023/08/28 06:05:56;;;;;;;1.30;1.30;;;;;;;;;;5046950;28;20434;-72
2023/08/28 06:08:22;;;;;;;0.90;0.90;;;;;;;;;;5050563;28;20514;-70
2023/08/28 06:10:49;;;;;;;1.23;1.07;;;;;;;;;;5050674;28;20940;-74
2023/08/28 06:13:15;;;;;;;1.20;1.10;;;;;;;;;;5051983;28;20406;-73
2023/08/28 06:15:41;;;;;;;0.73;0.73;;;;;;;;;;5050934;28;20429;-73
2023/08/28 06:18:07;;;;;;;1.37;1.00;;;;;;;;;;5047023;28;20426;-72
2023/08/28 06:20:35;;;;;;;1.60;1.50;;;;;;;;;;5049635;28;20559;-71
2023/08/28 06:23:01;;;;;;;3.17;1.40;;;;;;;;;;5051470;28;20413;-70
2023/08/28 06:25:27;;;;;;;8.27;1.37;;;;;;;;;;5051338;28;20435;-74
2023/08/28 06:27:53;;;;;;;12.17;1.20;;;;;;;;;;5051583;28;20427;-74
2023/08/28 06:30:19;;;;;;;0.93;0.87;;;;;;;;;;5049444;28;20445;-73
2023/08/28 06:32:46;;;;;;;2.10;1.00;;;;;;;;;;5049240;28;20433;-73
2023/08/28 06:35:11;;;;;;;0.70;0.70;;;;;;;;;;5050602;28;20487;-72
2023/08/28 06:37:37;;;;;;;2.00;1.90;;;;;;;;;;5050124;28;20914;-71
2023/08/28 06:40:04;;;;;;;6.97;1.33;;;;;;;;;;5050749;28;20462;-70
2023/08/28 06:42:30;;;;;;;2.50;1.30;;;;;;;;;;5048351;28;20439;-73
2023/08/28 06:44:56;;;;;;;0.80;0.80;;;;;;;;;;5049917;28;20473;-73
2023/08/28 06:47:22;;;;;;;0.97;0.97;;;;;;;;;;5047571;28;20922;-74
2023/08/28 06:49:48;;;;;;;1.33;1.33;;;;;;;;;;5046091;28;20434;-70
2023/08/28 06:52:14;;;;;;;1.03;1.03;;;;;;;;;;5048985;28;20429;-71
2023/08/28 06:54:40;;;;;;;2.60;0.93;;;;;;;;;;5047993;28;20474;-74
2023/08/28 06:57:06;;;;;;;1.70;1.60;;;;;;;;;;5049117;28;20430;-69
2023/08/28 06:59:32;;;;;;;0.77;0.67;;;;;;;;;;5044440;28;21059;-69
2023/08/28 07:01:58;;;;;;;0.80;0.80;;;;;;;;;;5041102;28;20828;-70
2023/08/28 07:04:24;;;;;;;0.80;0.80;;;;;;;;;;5047229;28;20449;-70
2023/08/28 07:06:51;;;;;;;6.53;1.20;;;;;;;;;;5046518;28;20496;-69
2023/08/28 07:09:17;;;;;;;2.30;0.90;;;;;;;;;;5041486;28;20434;-71
2023/08/28 07:11:43;;;;;;;1.50;1.40;;;;;;;;;;5042550;28;20454;-71
2023/08/28 07:14:09;;;;;;;1.50;1.03;;;;;;;;;;5042109;28;20484;-70
2023/08/28 07:16:35;;;;;;;0.90;0.90;;;;;;;;;;5045885;28;20465;-70
2023/08/28 07:19:01;;;;;;;1.93;1.30;;;;;;;;;;5042122;28;20438;-70
2023/08/28 07:21:27;;;;;;;4.73;1.87;;;;;;;;;;5046772;28;20489;-70
2023/08/28 07:23:53;;;;;;;1.83;1.00;;;;;;;;;;5048296;28;20521;-69
2023/08/28 07:26:19;;;;;;;1.77;1.43;;;;;;;;;;5046480;28;20808;-70
2023/08/28 07:28:48;;;;;;;2.90;1.10;;;;;;;;;;5050195;28;20430;-70
2023/08/28 07:31:14;;;;;;;1.47;1.13;;;;;;;;;;5048298;28;21058;-69
2023/08/28 07:33:40;;;;;;;1.37;1.10;;;;;;;;;;5043546;28;20430;-70
2023/08/28 07:36:06;;;;;;;2.57;0.80;;;;;;;;;;5048118;28;20438;-69
2023/08/28 07:38:33;;;;;;;2.00;1.20;;;;;;;;;;5049147;28;20441;-71
2023/08/28 07:40:59;;;;;;;1.53;1.40;;;;;;;;;;5031697;28;20486;-71
2023/08/28 07:43:25;;;;;;;1.77;0.90;;;;;;;;;;5045896;28;20503;-70
2023/08/28 07:45:51;;;;;;;1.23;1.20;;;;;;;;;;5046646;28;20508;-70
2023/08/28 07:48:17;;;;;;;3.37;1.43;;;;;;;;;;5047948;28;20822;-69
2023/08/28 07:50:45;;;;;;;2.43;1.33;;;;;;;;;;5040194;28;20500;-70
2023/08/28 07:53:11;;;;;;;1.07;1.00;;;;;;;;;;5043877;28;20493;-69
2023/08/28 07:55:37;;;;;;;2.93;1.00;;;;;;;;;;5046073;28;20450;-70
2023/08/28 07:58:04;;;;;;;3.43;1.13;;;;;;;;;;5049637;28;20426;-70
2023/08/28 08:00:34;;;;;;;2.30;1.10;;;;;;;;;;5044378;28;21134;-70
2023/08/28 08:03:00;;;;;;;4.60;0.90;;;;;;;;;;5044684;28;20426;-72
2023/08/28 08:05:26;;;;;;;1.17;1.07;;;;;;;;;;5046189;28;20533;-71
2023/08/28 08:07:52;;;;;;;1.43;1.33;;;;;;;;;;5046162;28;20450;-70
2023/08/28 08:10:18;;;;;;;3.50;1.83;;;;;;;;;;5048833;28;20434;-72
2023/08/28 08:12:45;;;;;;;2.03;1.30;;;;;;;;;;5040399;28;20446;-72
2023/08/28 08:15:11;;;;;;;1.40;1.40;;;;;;;;;;5037582;28;20448;-70
2023/08/28 08:17:37;;;;;;;3.23;1.47;;;;;;;;;;5042379;28;20454;-70
2023/08/28 08:20:05;;;;;;;2.03;1.13;;;;;;;;;;5041166;28;20477;-72
2023/08/28 08:22:31;;;;;;;3.03;1.77;;;;;;;;;;5042512;28;20442;-69
2023/08/28 08:24:57;;;;;;;2.53;1.37;;;;;;;;;;5039234;28;20462;-70
2023/08/28 08:27:25;;;;;;;1.10;1.10;;;;;;;;;;5037456;28;20906;-70
2023/08/28 08:29:51;;;;;;;1.83;1.50;;;;;;;;;;5045972;28;20828;-72
2023/08/28 08:32:17;;;;;;;1.17;1.17;;;;;;;;;;5045386;28;20461;-70
2023/08/28 08:34:43;;;;;;;2.10;1.10;;;;;;;;;;5040285;28;21026;-70
2023/08/28 08:37:09;;;;;;;1.10;1.10;;;;;;;;;;5044146;28;20448;-70
2023/08/28 08:39:35;;;;;;;1.00;1.00;;;;;;;;;;5043924;28;20448;-71
2023/08/28 08:42:00;;;;;;;1.50;1.40;;;;;;;;;;5042639;28;20848;-70
2023/08/28 08:44:26;;;;;;;2.10;1.30;;;;;;;;;;5044025;28;20474;-72
2023/08/28 08:46:54;;;;;;;1.70;1.60;;;;;;;;;;5045883;28;20437;-72
2023/08/28 08:49:25;;;;;;;2.87;1.37;;;;;;;;;;5045968;28;20414;-71
2023/08/28 08:51:52;;;;;;;1.43;1.33;;;;;;;;;;5045530;28;20475;-70
2023/08/28 08:54:21;;;;;;;5.70;1.10;;;;;;;;;;5041988;28;20506;-72
2023/08/28 08:56:48;;;;;;;0.70;0.70;;;;;;;;;;5045004;28;20525;-70
2023/08/28 08:59:14;;;;;;;2.50;0.70;;;;;;;;;;5047924;28;20430;-69
2023/08/28 09:01:41;;;;;;;1.87;1.77;;;;;;;;;;5047069;28;20492;-70
2023/08/28 09:04:07;;;;;;;2.90;1.03;;;;;;;;;;5045541;28;20458;-70
2023/08/28 09:06:34;;;;;;;1.47;1.30;;;;;;;;;;5044695;28;20532;-70
2023/08/28 09:09:00;;;;;;;2.53;1.13;;;;;;;;;;5047718;28;20422;-70
2023/08/28 09:11:26;;;;;;;3.37;1.57;;;;;;;;;;5047689;28;20505;-70
2023/08/28 09:13:52;;;;;;;0.97;0.97;;;;;;;;;;5046412;28;20438;-71
2023/08/28 09:16:19;;;;;;;1.53;1.47;;;;;;;;;;5047392;28;20516;-70
2023/08/28 09:18:45;;;;;;;0.97;0.90;;;;;;;;;;5048370;28;20486;-71
2023/08/28 09:21:11;;;;;;;2.00;1.50;;;;;;;;;;5048417;28;20528;-69
2023/08/28 09:23:42;;;;;;;2.20;0.70;;;;;;;;;;5046435;28;20445;-72
2023/08/28 09:26:08;;;;;;;3.07;1.03;;;;;;;;;;5048929;28;20427;-70
2023/08/28 09:28:34;;;;;;;2.40;1.50;;;;;;;;;;5047754;28;20434;-69
2023/08/28 09:31:00;;;;;;;5.07;1.13;;;;;;;;;;5049412;28;20791;-69
2023/08/28 09:33:41;;;;;;;1.70;1.57;;;;;;;;;;5048328;28;20430;-69
2023/08/28 09:36:14;;;;;;;1.43;1.43;;;;;;;;;;5048875;28;20449;-69
2023/08/28 09:38:44;;;;;;;1.53;1.43;;;;;;;;;;5048724;28;20462;-73
2023/08/28 09:41:13;;;;;;;2.40;1.93;;;;;;;;;;5047979;28;20485;-71
2023/08/28 09:43:39;;;;;;;1.50;1.50;;;;;;;;;;5045699;28;20442;-70
2023/08/28 09:46:05;;;;;;;6.13;1.70;;;;;;;;;;5049522;28;20437;-69
2023/08/28 09:48:32;;;;;;;1.60;1.60;;;;;;;;;;5049731;28;20509;-70
2023/08/28 09:51:00;;;;;;;1.37;1.37;;;;;;;;;;5049760;28;20418;-71
2023/08/28 09:53:27;;;;;;;1.97;1.90;;;;;;;;;;5048018;28;20466;-73
2023/08/28 09:55:53;;;;;;;3.40;1.87;;;;;;;;;;5045199;28;20479;-71
2023/08/28 09:58:25;;;;;;;1.33;1.33;;;;;;;;;;5049752;28;20713;-70
2023/08/28 10:00:52;;;;;;;1.73;1.63;;;;;;;;;;5049077;28;20481;-70
2023/08/28 10:03:19;;;;;;;2.00;1.90;;;;;;;;;;5050886;28;20788;-70
2023/08/28 10:05:46;;;;;;;2.30;2.13;;;;;;;;;;5046513;28;20459;-70
2023/08/28 10:08:13;;;;;;;1.57;1.40;;;;;;;;;;5045745;28;20509;-69
2023/08/28 10:10:40;;;;;;;3.03;1.70;;;;;;;;;;5048757;28;20515;-71
2023/08/28 10:13:10;;;;;;;1.40;1.30;;;;;;;;;;5049925;28;21001;-69
2023/08/28 10:15:41;;;;;;;1.80;1.50;;;;;;;;;;5049195;28;20426;-71
2023/08/28 10:18:13;;;;;;;4.20;3.20;;;;;;;;;;5048931;28;20434;-70
2023/08/28 10:20:40;;;;;;;3.23;1.27;;;;;;;;;;5046913;28;20574;-69
2023/08/28 10:23:07;;;;;;;1.70;1.60;;;;;;;;;;5047544;28;20946;-70
2023/08/28 10:25:34;;;;;;;6.40;1.40;;;;;;;;;;5049161;28;20425;-71
2023/08/28 10:28:00;;;;;;;2.73;1.30;;;;;;;;;;5044007;28;20528;-70
2023/08/28 10:30:27;;;;;;;1.10;1.10;;;;;;;;;;5043356;28;20434;-72
2023/08/28 10:32:54;;;;;;;1.37;1.37;;;;;;;;;;5044155;28;20442;-71
2023/08/28 10:35:21;;;;;;;2.13;1.90;;;;;;;;;;5045869;28;20457;-69
2023/08/28 10:37:48;;;;;;;2.37;1.60;;;;;;;;;;5045194;28;20534;-70
2023/08/28 10:40:17;;;;;;;4.57;1.60;;;;;;;;;;5044801;28;20478;-69
2023/08/28 10:42:43;;;;;;;3.80;1.77;;;;;;;;;;5047113;28;20434;-70
2023/08/28 10:45:09;;;;;;;2.83;1.67;;;;;;;;;;5044562;28;20533;-70
2023/08/28 10:47:37;;;;;;;2.13;1.97;;;;;;;;;;5046228;28;20923;-69
2023/08/28 10:50:05;;;;;;;3.13;2.30;;;;;;;;;;5046357;28;20929;-72
2023/08/28 10:52:30;;;;;;;1.50;1.50;;;;;;;;;;5045474;28;20500;-70
2023/08/28 10:54:59;;;;;;;7.37;2.30;;;;;;;;;;5045235;28;20902;-71
2023/08/28 10:57:29;;;;;;;2.23;1.70;;;;;;;;;;5047153;28;20930;-71
2023/08/28 10:59:55;;;;;;;1.93;1.83;;;;;;;;;;5043377;28;20461;-70
2023/08/28 11:02:21;;;;;;;3.73;1.70;;;;;;;;;;5040331;28;20443;-72
2023/08/28 11:04:48;;;;;;;2.00;1.90;;;;;;;;;;5045958;28;20425;-70
2023/08/28 11:07:26;;;;;;;2.30;1.57;;;;;;;;;;5045683;28;20434;-71
2023/08/28 11:09:52;;;;;;;2.60;1.97;;;;;;;;;;5039688;28;20434;-70
2023/08/28 11:12:21;;;;;;;3.13;1.43;;;;;;;;;;5044795;28;20450;-70
2023/08/28 11:14:53;;;;;;;1.60;1.33;;;;;;;;;;5042512;28;20848;-70
2023/08/28 11:17:20;;;;;;;3.57;1.77;;;;;;;;;;5040464;28;20813;-70
2023/08/28 11:19:55;;;;;;;2.07;1.83;;;;;;;;;;5045400;28;20426;-70
2023/08/28 11:22:40;;;;;;;1.50;1.50;;;;;;;;;;5039174;28;20797;-70
2023/08/28 11:25:11;;;;;;;1.73;1.57;;;;;;;;;;5041599;28;21040;-70
2023/08/28 11:27:37;;;;;;;2.40;2.27;;;;;;;;;;5045199;28;20480;-71
2023/08/28 11:30:07;;;;;;;1.87;1.77;;;;;;;;;;5043761;28;20418;-71
2023/08/28 11:32:37;;;;;;;2.40;1.73;;;;;;;;;;5043676;28;20195;-70
2023/08/28 11:35:13;;;;;;;6.93;1.40;;;;;;;;;;5044681;28;20410;-69
2023/08/28 11:37:42;;;;;;;1.53;1.53;;;;;;;;;;5044137;28;20421;-69
2023/08/28 11:40:09;;;;;;;1.90;1.80;;;;;;;;;;5043477;28;20426;-71
2023/08/28 11:42:36;;;;;;;2.20;1.70;;;;;;;;;;5045237;28;20946;-70
2023/08/28 11:45:04;;;;;;;2.50;1.80;;;;;;;;;;5043198;28;20468;-69
2023/08/28 11:47:31;;;;;;;2.27;2.07;;;;;;;;;;5041759;28;20449;-70
2023/08/28 11:49:57;;;;;;;1.90;1.80;;;;;;;;;;5046472;28;20422;-69
2023/08/28 11:52:23;;;;;;;3.20;2.30;;;;;;;;;;5042439;28;20547;-71
2023/08/28 11:54:50;;;;;;;2.30;2.30;;;;;;;;;;5045654;28;20446;-69
2023/08/28 11:57:16;;;;;;;3.33;1.90;;;;;;;;;;5042649;28;20529;-69
2023/08/28 11:59:43;;;;;;;1.70;1.60;;;;;;;;;;5047300;28;21333;-69
2023/08/28 12:02:09;;;;;;;3.40;2.00;;;;;;;;;;5044109;28;20480;-70
2023/08/28 12:04:36;;;;;;;3.13;2.03;;;;;;;;;;5042125;28;20435;-69
2023/08/28 12:07:03;;;;;;;2.10;2.00;;;;;;;;;;5043659;28;20958;-70
2023/08/28 12:09:29;;;;;;;5.63;5.13;;;;;;;;;;5042285;28;20450;-71
2023/08/28 12:11:56;;;;;;;3.43;2.23;;;;;;;;;;5046712;28;20783;-72
2023/08/28 12:14:23;;;;;;;2.30;2.10;;;;;;;;;;5046913;28;20806;-71
2023/08/28 12:16:50;;;;;;;2.13;1.90;;;;;;;;;;5045833;28;20422;-70
2023/08/28 12:19:22;;;;;;;3.13;2.07;;;;;;;;;;5046294;28;20426;-69
2023/08/28 12:21:48;;;;;;;1.40;1.40;;;;;;;;;;5048040;28;20480;-70
2023/08/28 12:24:14;;;;;;;2.67;1.80;;;;;;;;;;5046168;28;20414;-73
2023/08/28 12:26:45;;;;;;;5.17;2.57;;;;;;;;;;5047282;28;20422;-70
2023/08/28 12:29:11;;;;;;;2.50;2.40;;;;;;;;;;5046068;28;20903;-71
2023/08/28 12:31:37;;;;;;;3.20;2.80;;;;;;;;;;5047321;28;20430;-70
2023/08/28 12:34:07;;;;;;;2.70;1.80;;;;;;;;;;5041946;28;20922;-72
2023/08/28 12:36:35;;;;;;;2.10;2.00;;;;;;;;;;5045238;28;20434;-71
2023/08/28 12:39:03;;;;;;;3.57;1.63;;;;;;;;;;5045020;28;20427;-71
2023/08/28 12:41:32;;;;;;;2.40;1.40;;;;;;;;;;5042323;28;21067;-71
2023/08/28 12:43:58;;;;;;;5.40;1.77;;;;;;;;;;5045027;28;20537;-70
2023/08/28 12:46:24;;;;;;;1.83;1.80;;;;;;;;;;5043291;28;20439;-70
2023/08/28 12:48:51;;;;;;;2.73;2.37;;;;;;;;;;5045366;28;20473;-71
2023/08/28 12:51:18;;;;;;;3.30;1.70;;;;;;;;;;5044582;28;20445;-72
2023/08/28 12:53:44;;;;;;;5.07;1.80;;;;;;;;;;5044639;28;20473;-69
2023/08/28 12:56:09;;;;;;;6.43;1.70;;;;;;;;;;5050462;28;20437;-73
2023/08/28 12:58:35;;;;;;;1.77;1.67;;;;;;;;;;5049872;28;20430;-70
2023/08/28 13:01:04;;;;;;;2.77;1.80;;;;;;;;;;5046898;28;21110;-70
2023/08/28 13:03:30;;;;;;;2.87;1.60;;;;;;;;;;5048655;28;20529;-71
2023/08/28 13:05:56;;;;;;;5.20;1.70;;;;;;;;;;5049958;28;20919;-70
2023/08/28 13:08:22;;;;;;;8.23;1.47;;;;;;;;;;5049068;28;20430;-70
2023/08/28 13:10:48;;;;;;;1.60;1.50;;;;;;;;;;5047649;28;20949;-70
2023/08/28 13:13:14;;;;;;;2.93;1.57;;;;;;;;;;5050507;28;20430;-73
2023/08/28 13:15:40;;;;;;;5.90;1.43;;;;;;;;;;5046615;28;20423;-72
2023/08/28 13:18:07;;;;;;;5.60;1.90;;;;;;;;;;5050242;28;20452;-69
2023/08/28 13:20:33;;;;;;;2.43;1.63;;;;;;;;;;5050503;28;20524;-69
2023/08/28 13:22:59;;;;;;;1.67;1.43;;;;;;;;;;5051460;28;20426;-71
2023/08/28 13:25:24;;;;;;;1.80;1.53;;;;;;;;;;5045842;28;20427;-70
2023/08/28 13:27:50;;;;;;;3.10;1.40;;;;;;;;;;5048188;28;20438;-71
2023/08/28 13:30:16;;;;;;;1.20;1.20;;;;;;;;;;5049564;28;20507;-70
2023/08/28 13:32:46;;;;;;;5.50;1.50;;;;;;;;;;5049572;28;20432;-69
2023/08/28 13:35:12;;;;;;;2.20;2.10;;;;;;;;;;5049474;28;20445;-73
2023/08/28 13:37:38;;;;;;;2.30;1.60;;;;;;;;;;5048845;28;20445;-72
2023/08/28 13:40:04;;;;;;;1.40;1.30;;;;;;;;;;5050639;28;20415;-72
2023/08/28 13:42:30;;;;;;;1.37;1.37;;;;;;;;;;5047864;28;20477;-71
2023/08/28 13:44:56;;;;;;;1.63;1.10;;;;;;;;;;5049253;28;20539;-72
2023/08/28 13:47:22;;;;;;;1.10;1.10;;;;;;;;;;5044889;28;20522;-73
2023/08/28 13:49:48;;;;;;;1.80;1.17;;;;;;;;;;5050218;28;20526;-70
2023/08/28 13:52:14;;;;;;;1.53;1.00;;;;;;;;;;5051001;28;20419;-72
2023/08/28 13:54:40;;;;;;;5.50;1.20;;;;;;;;;;5047415;28;20445;-70
2023/08/28 13:57:06;;;;;;;1.20;1.10;;;;;;;;;;5050287;28;20422;-72
2023/08/28 13:59:32;;;;;;;0.90;0.90;;;;;;;;;;5049017;28;20430;-73
2023/08/28 14:01:58;;;;;;;1.17;1.17;;;;;;;;;;5048498;28;20478;-71
2023/08/28 14:04:24;;;;;;;1.50;1.40;;;;;;;;;;5049309;28;20439;-72
2023/08/28 14:06:50;;;;;;;0.90;0.90;;;;;;;;;;5050199;28;20434;-71
2023/08/28 14:09:16;;;;;;;3.63;1.67;;;;;;;;;;5048223;28;20430;-73
2023/08/28 14:11:42;;;;;;;1.13;1.13;;;;;;;;;;5049968;28;20431;-73
2023/08/28 14:14:08;;;;;;;4.63;1.60;;;;;;;;;;5048982;28;20426;-73
2023/08/28 14:16:34;;;;;;;4.13;1.10;;;;;;;;;;5043802;28;20497;-72
2023/08/28 14:19:00;;;;;;;1.77;1.77;;;;;;;;;;5048877;28;20517;-72
2023/08/28 14:21:26;;;;;;;1.03;1.03;;;;;;;;;;5049170;28;20569;-73
2023/08/28 14:23:52;;;;;;;2.47;1.13;;;;;;;;;;5049289;28;21127;-72
2023/08/28 14:26:20;;;;;;;1.10;1.10;;;;;;;;;;5042814;28;20523;-72
2023/08/28 14:28:46;;;;;;;2.00;1.10;;;;;;;;;;5046871;28;20953;-73
2023/08/28 14:31:12;;;;;;;1.20;1.20;;;;;;;;;;5045383;28;20426;-71
2023/08/28 14:33:40;;;;;;;0.93;0.93;;;;;;;;;;5046343;28;20962;-73
2023/08/28 14:36:06;;;;;;;0.83;0.83;;;;;;;;;;5049684;28;20411;-72
2023/08/28 14:38:32;;;;;;;3.00;1.30;;;;;;;;;;5049564;28;20492;-74
2023/08/28 14:40:58;;;;;;;1.00;0.90;;;;;;;;;;5049646;28;20551;-72